Time;durP1;ratioP1;P1;durP2;ratioP2;P2;SDS_P1;SDS_P2;PMS_P1;PMS_P2;Temp;Humidity;BMP_temperature;BMP_pressure;BME280_temperature;BME280_humidity;BME280_pressure;Samples;Min_cycle;Max_cycle;Signal;HPM_P1;HPM_P2
2022/05/16 00:02:02;;;;;;;16.80;10.45;;;;;;;17.85;nan;-24314.16;5074558;28;20324;-58
2022/05/16 00:04:28;;;;;;;19.65;11.98;;;;;;;17.78;nan;-24312.19;5074352;28;20174;-58
2022/05/16 00:06:53;;;;;;;18.67;11.30;;;;;;;17.98;nan;-24317.78;5074310;28;20174;-58
2022/05/16 00:09:19;;;;;;;21.35;11.55;;;;;;;17.96;nan;-24317.22;5074098;28;20201;-58
2022/05/16 00:11:44;;;;;;;16.75;10.50;;;;;;;17.90;nan;-24315.53;5074293;28;20178;-59
2022/05/16 00:14:10;;;;;;;17.15;10.75;;;;;;;17.45;nan;-24303.13;5074323;28;20173;-58
2022/05/16 00:16:36;;;;;;;16.67;10.55;;;;;;;17.62;nan;-24308.00;5074453;28;20645;-59
2022/05/16 00:19:03;;;;;;;17.77;11.02;;;;;;;17.30;nan;-24299.09;5074434;28;20201;-58
2022/05/16 00:21:28;;;;;;;18.13;12.00;;;;;;;17.45;nan;-24303.28;5074656;28;20174;-58
2022/05/16 00:23:54;;;;;;;19.00;11.75;;;;;;;17.51;nan;-24304.94;5074026;28;20182;-58
2022/05/16 00:26:19;;;;;;;17.35;11.25;;;;;;;17.46;nan;-24303.56;5074100;28;20184;-58
2022/05/16 00:28:45;;;;;;;17.70;11.90;;;;;;;17.16;nan;-24295.16;5073974;28;20249;-58
2022/05/16 00:31:10;;;;;;;17.52;11.25;;;;;;;17.30;nan;-24299.09;5072641;28;20261;-58
2022/05/16 00:33:36;;;;;;;17.42;11.68;;;;;;;17.13;nan;-24294.34;5073692;28;20170;-58
2022/05/16 00:36:01;;;;;;;19.73;12.48;;;;;;;17.10;nan;-24293.50;5073568;28;20205;-58
2022/05/16 00:38:26;;;;;;;21.00;11.77;;;;;;;16.96;nan;-24289.72;5073407;28;20255;-58
2022/05/16 00:40:53;;;;;;;17.40;11.88;;;;;;;16.85;nan;-24286.50;5074067;28;20170;-58
2022/05/16 00:43:41;;;;;;;17.55;11.68;;;;;;;;;;5073902;28;20232;-58
2022/05/16 00:46:06;;;;;;;19.50;11.90;;;;;;;16.35;nan;-24272.81;5073643;28;20637;-57
2022/05/16 00:48:31;;;;;;;21.38;12.55;;;;;;;17.09;nan;-24293.34;5073553;28;20174;-57
2022/05/16 00:50:57;;;;;;;20.42;12.40;;;;;;;16.57;nan;-24278.97;5073670;28;20166;-58
2022/05/16 00:53:23;;;;;;;20.25;11.75;;;;;;;16.79;nan;-24284.97;5073411;28;20174;-58
2022/05/16 00:55:49;;;;;;;17.75;11.63;;;;;;;16.84;nan;-24286.38;5073893;28;20208;-58
2022/05/16 00:58:16;;;;;;;19.55;12.05;;;;;;;16.85;nan;-24286.66;5073936;28;20198;-59
2022/05/16 01:00:43;;;;;;;18.75;11.55;;;;;;;16.76;nan;-24284.13;5072175;28;20204;-59
2022/05/16 01:06:02;;;;;;;20.65;12.68;;;;;;;;;;5073307;28;20169;-58
2022/05/16 01:08:30;;;;;;;19.77;11.75;;;;;;;16.65;nan;-24281.06;5073580;28;20178;-58
2022/05/16 01:11:00;;;;;;;18.38;11.55;;;;;;;16.38;nan;-24273.66;5073245;28;20170;-58
2022/05/16 01:13:28;;;;;;;20.92;12.43;;;;;;;16.45;nan;-24275.47;5073003;28;20212;-59
2022/05/16 01:15:54;;;;;;;19.70;11.90;;;;;;;16.13;nan;-24266.66;5072793;28;20201;-58
2022/05/16 01:18:22;;;;;;;19.75;12.13;;;;;;;16.48;nan;-24276.44;5072856;28;20201;-58
2022/05/16 01:21:12;;;;;;;18.13;11.80;;;;;;;16.47;nan;-24276.03;5071680;28;20637;-58
2022/05/16 01:23:47;;;;;;;18.48;12.20;;;;;;;16.23;nan;-24269.59;5073152;28;20621;-58
2022/05/16 01:26:16;;;;;;;20.52;12.32;;;;;;;;;;5072403;28;20185;-58
2022/05/16 01:28:41;;;;;;;19.85;12.73;;;;;;;16.19;nan;-24268.34;5072842;28;20174;-58
2022/05/16 01:31:07;;;;;;;17.23;11.85;;;;;;;16.27;nan;-24270.59;5073491;28;20169;-59
2022/05/16 01:33:33;;;;;;;19.38;12.20;;;;;;;16.01;nan;-24263.44;5072780;28;20645;-58
2022/05/16 01:35:59;;;;;;;18.98;12.75;;;;;;;15.99;nan;-24262.75;5072836;28;20193;-57
2022/05/16 01:38:26;;;;;;;19.77;12.68;;;;;;;15.91;nan;-24260.66;5072761;28;20649;-58
2022/05/16 01:41:05;;;;;;;22.35;12.48;;;;;;;16.34;nan;-24272.53;5072004;28;20182;-58
2022/05/16 01:43:34;;;;;;;21.48;13.63;;;;;;;16.05;nan;-24264.44;5072826;28;20181;-57
2022/05/16 01:46:00;;;;;;;20.92;12.93;;;;;;;16.29;nan;-24271.13;5072816;28;20162;-58
2022/05/16 01:48:30;;;;;;;22.48;12.40;;;;;;;16.29;nan;-24271.13;5072400;28;20669;-58
2022/05/16 01:51:02;;;;;;;22.35;12.63;;;;;;;16.22;nan;-24269.19;5071267;28;20172;-59
2022/05/16 01:53:28;;;;;;;20.00;12.55;;;;;;;16.11;nan;-24266.25;5072412;28;20722;-58
2022/05/16 01:55:54;;;;;;;19.25;11.98;;;;;;;16.12;nan;-24266.38;5072371;28;20602;-62
2022/05/16 01:58:19;;;;;;;19.25;11.88;;;;;;;15.75;nan;-24256.19;5072462;28;20238;-57
2022/05/16 02:00:45;;;;;;;19.48;11.70;;;;;;;16.11;nan;-24266.09;5072161;28;20174;-57
2022/05/16 02:03:11;;;;;;;20.55;11.45;;;;;;;16.05;nan;-24264.44;5072065;28;20170;-57
2022/05/16 02:05:37;;;;;;;18.23;11.43;;;;;;;16.22;nan;-24269.19;5072173;28;20166;-58
2022/05/16 02:08:04;;;;;;;17.45;11.07;;;;;;;15.99;nan;-24262.88;5072014;28;20186;-59
2022/05/16 02:10:30;;;;;;;18.75;11.45;;;;;;;16.04;nan;-24264.28;5070829;28;20166;-58
2022/05/16 02:12:59;;;;;;;18.08;11.02;;;;;;;15.95;nan;-24261.78;5072182;28;20185;-58
2022/05/16 02:15:28;;;;;;;17.48;10.57;;;;;;;16.01;nan;-24263.31;5071939;28;20173;-58
2022/05/16 02:17:54;;;;;;;17.42;10.75;;;;;;;16.22;nan;-24269.19;5070393;28;20240;-59
2022/05/16 02:20:20;;;;;;;17.83;10.90;;;;;;;16.18;nan;-24268.22;5071157;28;20263;-57
2022/05/16 02:25:37;;;;;;;15.55;9.93;;;;;;;16.05;nan;-24264.44;5071446;28;20274;-58
2022/05/16 02:28:03;;;;;;;19.85;11.32;;;;;;;16.07;nan;-24265.00;5071341;28;20187;-59
2022/05/16 02:30:29;;;;;;;14.63;9.02;;;;;;;15.88;nan;-24259.94;5071461;28;20256;-56
2022/05/16 02:32:55;;;;;;;17.92;10.18;;;;;;;15.84;nan;-24258.69;5069824;28;20264;-57
2022/05/16 02:35:20;;;;;;;19.35;10.90;;;;;;;16.07;nan;-24265.00;5071381;28;20182;-58
2022/05/16 02:37:46;;;;;;;13.57;9.38;;;;;;;15.91;nan;-24260.78;5071863;28;20222;-58
2022/05/16 02:40:12;;;;;;;15.27;9.70;;;;;;;15.96;nan;-24262.06;5071233;28;20162;-58
2022/05/16 02:42:37;;;;;;;15.82;9.88;;;;;;;15.59;nan;-24251.69;5071113;28;20182;-58
2022/05/16 02:45:04;;;;;;;17.83;10.00;;;;;;;15.14;nan;-24239.22;5071491;28;20151;-58
2022/05/16 02:47:29;;;;;;;17.38;10.38;;;;;;;15.69;nan;-24254.50;5071405;28;20356;-60
2022/05/16 02:49:58;;;;;;;16.13;10.18;;;;;;;15.73;nan;-24255.75;5069664;28;20266;-58
2022/05/16 02:52:23;;;;;;;13.43;8.82;;;;;;;15.47;nan;-24248.47;5071416;28;20182;-58
2022/05/16 02:54:51;;;;;;;14.07;9.55;;;;;;;15.71;nan;-24255.06;5074742;28;20239;-58
2022/05/16 02:57:17;;;;;;;15.52;9.55;;;;;;;15.60;nan;-24251.97;5075569;28;20165;-58
2022/05/16 02:59:42;;;;;;;14.63;8.82;;;;;;;15.68;nan;-24254.22;5075743;28;20199;-58
2022/05/16 03:02:10;;;;;;;12.70;7.85;;;;;;;15.69;nan;-24254.63;5075517;28;20182;-58
2022/05/16 03:04:36;;;;;;;16.67;8.93;;;;;;;15.45;nan;-24248.06;5075654;28;20249;-57
2022/05/16 03:07:03;;;;;;;13.93;8.65;;;;;;;15.60;nan;-24252.13;5075694;28;20248;-58
2022/05/16 03:09:29;;;;;;;13.50;7.97;;;;;;;15.51;nan;-24249.59;5075478;28;20177;-58
2022/05/16 03:11:55;;;;;;;12.88;7.53;;;;;;;15.39;nan;-24246.38;5075676;28;20181;-58
2022/05/16 03:14:21;;;;;;;11.45;7.70;;;;;;;15.35;nan;-24245.13;5074511;28;20204;-58
2022/05/16 03:16:47;;;;;;;11.75;7.78;;;;;;;15.55;nan;-24250.56;5080781;28;20185;-58
2022/05/16 03:19:13;;;;;;;12.27;7.97;;;;;;;16.16;nan;-24267.50;5079458;28;20219;-59
2022/05/16 03:21:40;;;;;;;12.63;7.95;;;;;;;16.19;nan;-24268.34;5078737;28;20216;-59
2022/05/16 03:24:08;;;;;;;13.70;8.27;;;;;;;16.77;nan;-24284.56;5078149;28;20250;-58
2022/05/16 03:26:34;;;;;;;13.65;8.55;;;;;;;17.00;nan;-24290.84;5079265;28;20680;-58
2022/05/16 03:28:59;;;;;;;12.15;7.97;;;;;;;17.30;nan;-24299.09;5077602;28;20201;-58
2022/05/16 03:31:25;;;;;;;12.68;8.52;;;;;;;18.01;nan;-24318.63;5080318;28;20782;-58
2022/05/16 03:33:51;;;;;;;14.05;8.52;;;;;;;18.39;nan;-24329.22;5077590;28;20196;-58
2022/05/16 03:36:17;;;;;;;14.00;8.38;;;;;;;18.99;nan;-24345.66;5079571;28;20174;-58
2022/05/16 03:41:27;;;;;;;13.45;8.10;;;;;;;19.91;nan;-24370.81;5077688;28;20223;-59
2022/05/16 03:43:52;;;;;;;14.30;8.63;;;;;;;20.27;nan;-24380.97;5079969;28;20209;-58
2022/05/16 03:46:18;;;;;;;15.82;10.15;;;;;;;21.05;nan;-24402.34;5075914;28;20193;-58
2022/05/16 03:48:44;;;;;;;13.05;8.25;;;;;;;20.47;nan;-24386.38;5080051;28;20235;-58
2022/05/16 03:51:12;;;;;;;14.40;8.00;;;;;;;22.12;nan;-24431.44;5078256;28;20275;-58
2022/05/16 03:53:46;;;;;;;14.38;8.65;;;;;;;22.46;nan;-24440.84;5076463;28;20214;-59
2022/05/16 03:56:15;;;;;;;9.55;7.05;;;;;;;22.71;nan;-24447.63;5076209;28;20655;-59
2022/05/16 03:58:41;;;;;;;12.05;7.10;;;;;;;23.08;nan;-24457.84;5079097;28;20193;-59
2022/05/16 04:01:08;;;;;;;11.38;7.15;;;;;;;23.48;nan;-24468.78;5076346;28;20192;-59
2022/05/16 04:03:34;;;;;;;11.07;6.70;;;;;;;23.40;nan;-24466.56;5076087;28;20893;-60
2022/05/16 04:05:59;;;;;;;9.20;6.03;;;;;;;23.46;nan;-24468.22;5066824;28;20813;-59
2022/05/16 04:08:26;;;;;;;9.13;6.32;;;;;;;24.13;nan;-24486.44;5068169;28;20205;-59
2022/05/16 04:10:51;;;;;;;9.43;5.88;;;;;;;24.62;nan;-24499.81;5065222;28;20182;-59
2022/05/16 04:13:17;;;;;;;8.90;6.25;;;;;;;24.57;nan;-24498.41;5066779;28;20222;-59
2022/05/16 04:15:42;;;;;;;8.10;5.55;;;;;;;24.76;nan;-24503.66;5071737;28;20243;-59
2022/05/16 04:18:08;;;;;;;7.75;5.57;;;;;;;24.90;nan;-24507.53;5070394;28;20302;-61
2022/05/16 04:20:33;;;;;;;7.05;5.03;;;;;;;25.57;nan;-24525.56;5074341;28;20274;-60
2022/05/16 04:22:59;;;;;;;8.27;5.85;;;;;;;25.85;nan;-24533.38;5077539;28;20232;-59
2022/05/16 04:25:24;;;;;;;8.57;5.30;;;;;;;25.72;nan;-24529.69;5073500;28;20182;-58
2022/05/16 04:27:50;;;;;;;7.85;5.57;;;;;;;25.23;nan;-24516.34;5072777;28;20209;-60
2022/05/16 04:30:15;;;;;;;8.73;5.43;;;;;;;25.30;nan;-24518.25;5071927;28;20209;-60
2022/05/16 04:32:41;;;;;;;8.35;5.80;;;;;;;25.46;nan;-24522.78;5072660;28;20177;-57
2022/05/16 04:35:07;;;;;;;9.48;5.90;;;;;;;25.69;nan;-24528.84;5071047;28;20180;-58
2022/05/16 04:37:33;;;;;;;8.65;6.20;;;;;;;25.23;nan;-24516.47;5077177;28;20247;-57
2022/05/16 04:40:00;;;;;;;8.32;6.13;;;;;;;25.37;nan;-24520.31;5078506;28;20600;-56
2022/05/16 04:42:41;;;;;;;8.77;5.85;;;;;;;25.48;nan;-24523.22;5073309;28;20310;-57
2022/05/16 04:45:08;;;;;;;9.02;5.95;;;;;;;25.52;nan;-24524.44;5070590;28;20177;-55
2022/05/16 04:47:33;;;;;;;8.60;5.50;;;;;;;25.27;nan;-24517.44;5071127;28;20173;-55
2022/05/16 04:49:59;;;;;;;8.85;5.75;;;;;;;22.97;nan;-24454.66;5069916;28;20196;-60
2022/05/16 04:52:24;;;;;;;8.80;6.28;;;;;;;25.21;nan;-24515.78;5069372;28;20186;-57
2022/05/16 04:54:51;;;;;;;9.45;5.72;;;;;;;25.05;nan;-24511.66;5071792;28;20255;-60
2022/05/16 04:57:17;;;;;;;8.75;5.50;;;;;;;25.07;nan;-24512.06;5071194;28;20170;-58
2022/05/16 04:59:46;;;;;;;10.52;5.32;;;;;;;24.21;nan;-24488.63;5070366;28;20557;-59
2022/05/16 05:02:12;;;;;;;10.88;6.07;;;;;;;24.26;nan;-24489.88;5070273;28;20652;-59
2022/05/16 05:04:38;;;;;;;8.65;5.97;;;;;;;24.37;nan;-24493.03;5067535;28;21143;-60
2022/05/16 05:07:03;;;;;;;8.43;6.00;;;;;;;24.73;nan;-24502.69;5068317;28;20213;-60
2022/05/16 05:09:28;;;;;;;9.43;6.57;;;;;;;24.97;nan;-24509.44;5068658;28;20584;-58
2022/05/16 05:14:41;;;;;;;16.65;6.32;;;;;;;25.39;nan;-24520.72;5073504;28;20331;-59
2022/05/16 05:17:10;;;;;;;12.68;6.15;;;;;;;25.08;nan;-24512.34;5076051;28;20185;-59
2022/05/16 05:19:40;;;;;;;8.80;6.25;;;;;;;25.22;nan;-24516.06;5072184;28;20215;-59
2022/05/16 05:22:06;;;;;;;10.60;6.28;;;;;;;24.65;nan;-24500.63;5077452;28;20186;-60
2022/05/16 05:24:31;;;;;;;10.52;6.80;;;;;;;24.89;nan;-24507.25;5074408;28;20687;-60
2022/05/16 05:26:57;;;;;;;7.82;6.07;;;;;;;24.35;nan;-24492.34;5074607;28;20186;-60
2022/05/16 05:29:24;;;;;;;8.25;6.05;;;;;;;24.23;nan;-24489.06;5072457;28;20181;-59
2022/05/16 05:31:50;;;;;;;9.77;6.43;;;;;;;23.93;nan;-24480.91;5074746;28;20186;-60
2022/05/16 05:34:16;;;;;;;8.18;5.97;;;;;;;23.89;nan;-24479.94;5072177;28;20214;-60
2022/05/16 05:36:43;;;;;;;9.68;6.43;;;;;;;23.57;nan;-24471.25;5074550;28;20565;-60
2022/05/16 05:39:12;;;;;;;8.02;6.05;;;;;;;23.46;nan;-24468.06;5073907;28;20201;-60
2022/05/16 05:41:38;;;;;;;8.40;6.50;;;;;;;23.32;nan;-24464.34;5075464;28;20219;-58
2022/05/16 05:44:04;;;;;;;10.55;6.72;;;;;;;23.08;nan;-24457.84;5071920;28;20261;-59
2022/05/16 05:46:39;;;;;;;8.77;6.28;;;;;;;22.89;nan;-24452.72;5074055;28;20293;-59
2022/05/16 05:49:06;;;;;;;9.10;6.30;;;;;;;22.63;nan;-24445.41;5069854;28;20192;-58
2022/05/16 05:51:32;;;;;;;9.93;6.72;;;;;;;22.77;nan;-24449.41;5072957;28;20615;-59
2022/05/16 05:53:57;;;;;;;13.95;6.65;;;;;;;22.88;nan;-24452.31;5071616;28;20252;-59
2022/05/16 05:56:22;;;;;;;8.77;5.82;;;;;;;22.70;nan;-24447.50;5074187;28;20209;-58
2022/05/16 05:58:48;;;;;;;10.00;6.45;;;;;;;22.95;nan;-24454.25;5071908;28;20288;-58
2022/05/16 06:01:14;;;;;;;8.77;5.93;;;;;;;22.57;nan;-24443.75;5074288;28;20174;-58
2022/05/16 06:03:39;;;;;;;10.15;6.25;;;;;;;22.58;nan;-24444.03;5072026;28;20182;-58
2022/05/16 06:06:05;;;;;;;10.27;6.78;;;;;;;22.62;nan;-24445.13;5073960;28;20644;-58
2022/05/16 06:08:30;;;;;;;9.43;6.10;;;;;;;21.76;nan;-24421.75;5074289;28;20193;-58
2022/05/16 06:10:56;;;;;;;12.30;6.82;;;;;;;22.81;nan;-24450.53;5077139;28;20256;-58
2022/05/16 06:13:21;;;;;;;7.57;5.78;;;;;;;22.75;nan;-24448.72;5071893;28;20182;-58
2022/05/16 06:15:47;;;;;;;8.95;6.50;;;;;;;22.51;nan;-24442.09;5073840;28;20216;-58
2022/05/16 06:18:12;;;;;;;15.82;7.25;;;;;;;22.68;nan;-24446.78;5071817;28;20217;-59
2022/05/16 06:20:38;;;;;;;9.98;6.90;;;;;;;22.92;nan;-24453.28;5074239;28;20224;-59
2022/05/16 06:23:04;;;;;;;9.30;6.57;;;;;;;23.05;nan;-24457.03;5073692;28;20178;-60
2022/05/16 06:25:39;;;;;;;10.25;6.75;;;;;;;23.31;nan;-24464.06;5076377;28;20234;-59
2022/05/16 06:28:10;;;;;;;7.70;5.97;;;;;;;23.35;nan;-24465.19;5073936;28;20246;-60
2022/05/16 06:30:39;;;;;;;8.90;5.95;;;;;;;23.40;nan;-24466.56;5074052;28;20267;-58
2022/05/16 06:33:05;;;;;;;10.02;6.10;;;;;;;23.11;nan;-24458.53;5071902;28;20617;-58
2022/05/16 06:35:32;;;;;;;8.85;6.78;;;;;;;23.38;nan;-24465.88;5074342;28;20220;-59
2022/05/16 06:38:05;;;;;;;8.25;5.47;;;;;;;23.27;nan;-24462.97;5071000;28;20584;-59
2022/05/16 06:40:30;;;;;;;8.18;5.72;;;;;;;23.72;nan;-24475.25;5068841;28;20268;-62
2022/05/16 06:42:55;;;;;;;8.82;5.90;;;;;;;23.91;nan;-24480.50;5069179;28;20880;-60
2022/05/16 06:45:21;;;;;;;10.55;6.50;;;;;;;23.79;nan;-24477.19;5068855;28;20180;-60
2022/05/16 06:47:46;;;;;;;9.52;6.45;;;;;;;23.89;nan;-24479.94;5068258;28;20173;-59
2022/05/16 06:50:12;;;;;;;10.55;7.25;;;;;;;23.92;nan;-24480.78;5066641;28;20184;-59
2022/05/16 06:52:38;;;;;;;8.18;5.57;;;;;;;23.62;nan;-24472.63;5066894;28;20166;-59
2022/05/16 06:55:04;;;;;;;8.38;6.13;;;;;;;22.83;nan;-24451.09;5066298;28;20240;-59
2022/05/16 06:57:30;;;;;;;8.20;6.30;;;;;;;23.80;nan;-24477.47;5067784;28;20546;-60
2022/05/16 06:59:56;;;;;;;8.77;6.50;;;;;;;23.75;nan;-24476.09;5067742;28;20768;-60
2022/05/16 07:02:21;;;;;;;8.05;6.20;;;;;;;24.11;nan;-24486.00;5067695;28;20185;-60
2022/05/16 07:04:47;;;;;;;10.18;6.50;;;;;;;23.68;nan;-24474.28;5067775;28;20182;-60
2022/05/16 07:07:12;;;;;;;8.20;6.22;;;;;;;23.23;nan;-24462.00;5068966;28;20200;-59
2022/05/16 07:09:39;;;;;;;9.00;6.70;;;;;;;23.66;nan;-24473.59;5073551;28;20710;-60
2022/05/16 07:12:05;;;;;;;9.10;6.82;;;;;;;24.08;nan;-24485.19;5073511;28;20170;-60
2022/05/16 07:14:31;;;;;;;8.18;6.22;;;;;;;24.13;nan;-24486.56;5076929;28;20212;-60
2022/05/16 07:16:57;;;;;;;9.98;7.15;;;;;;;24.40;nan;-24493.75;5081506;28;20205;-59
2022/05/16 07:19:22;;;;;;;9.38;6.38;;;;;;;24.43;nan;-24494.69;5070898;28;20742;-60
2022/05/16 07:21:48;;;;;;;9.48;6.63;;;;;;;24.54;nan;-24497.75;5075947;28;20598;-60
2022/05/16 07:24:13;;;;;;;9.82;6.35;;;;;;;24.72;nan;-24502.56;5073146;28;20190;-59
2022/05/16 07:29:22;;;;;;;9.90;6.45;;;;;;;25.07;nan;-24512.06;5073254;28;20232;-59
2022/05/16 07:31:51;;;;;;;9.65;7.28;;;;;;;24.93;nan;-24508.22;5070628;28;20556;-59
2022/05/16 07:34:16;;;;;;;11.73;6.65;;;;;;;25.21;nan;-24515.78;5073969;28;20259;-59
2022/05/16 07:36:42;;;;;;;8.70;6.75;;;;;;;25.16;nan;-24514.41;5071431;28;20226;-59
2022/05/16 07:39:07;;;;;;;8.80;6.80;;;;;;;25.69;nan;-24528.84;5077603;28;20259;-60
2022/05/16 07:41:33;;;;;;;10.38;6.95;;;;;;;25.78;nan;-24531.31;5079720;28;20181;-58
2022/05/16 07:43:58;;;;;;;9.27;6.65;;;;;;;25.76;nan;-24530.78;5074750;28;20185;-58
2022/05/16 07:46:24;;;;;;;8.80;7.03;;;;;;;25.70;nan;-24529.13;5076809;28;20178;-58
2022/05/16 07:48:50;;;;;;;9.43;7.10;;;;;;;25.80;nan;-24532.00;5074351;28;20197;-58
2022/05/16 07:51:15;;;;;;;10.80;6.80;;;;;;;25.94;nan;-24535.88;5076692;28;20178;-58
2022/05/16 07:53:41;;;;;;;8.00;6.47;;;;;;;25.79;nan;-24531.59;5073787;28;20305;-59
2022/05/16 07:56:09;;;;;;;8.70;6.82;;;;;;;26.00;nan;-24537.22;5076417;28;20182;-59
2022/05/16 07:58:34;;;;;;;8.93;6.75;;;;;;;26.06;nan;-24539.03;5075947;28;20581;-59
2022/05/16 08:01:00;;;;;;;10.63;7.28;;;;;;;25.87;nan;-24533.94;5075860;28;20182;-59
2022/05/16 08:03:28;;;;;;;10.35;7.20;;;;;;;25.68;nan;-24528.56;5074222;28;20622;-59
2022/05/16 08:05:54;;;;;;;9.70;6.93;;;;;;;25.77;nan;-24531.19;5074315;28;20189;-59
2022/05/16 08:11:04;;;;;;;10.00;6.75;;;;;;;25.92;nan;-24535.19;5074404;28;20200;-59
2022/05/16 08:13:30;;;;;;;12.43;7.63;;;;;;;26.14;nan;-24541.22;5074296;28;20170;-59
2022/05/16 08:15:56;;;;;;;9.50;7.05;;;;;;;26.21;nan;-24543.16;5074243;28;20205;-58
2022/05/16 08:18:21;;;;;;;9.07;6.60;;;;;;;26.29;nan;-24545.34;5074134;28;20229;-59
2022/05/16 08:20:48;;;;;;;9.15;6.78;;;;;;;25.93;nan;-24535.44;5074547;28;20280;-59
2022/05/16 08:23:17;;;;;;;9.07;6.85;;;;;;;26.27;nan;-24544.78;5078729;28;20181;-59
2022/05/16 08:25:45;;;;;;;9.18;6.35;;;;;;;26.33;nan;-24546.44;5076110;28;20185;-58
2022/05/16 08:28:12;;;;;;;8.52;6.32;;;;;;;26.51;nan;-24551.13;5076341;28;20185;-59
2022/05/16 08:30:38;;;;;;;7.72;5.93;;;;;;;26.74;nan;-24557.44;5076088;28;20186;-59
2022/05/16 08:33:04;;;;;;;7.35;5.80;;;;;;;26.55;nan;-24552.22;5075825;28;20185;-59
2022/05/16 08:35:31;;;;;;;8.95;6.75;;;;;;;26.81;nan;-24559.50;5073607;28;20242;-58
2022/05/16 08:40:54;;;;;;;8.57;6.78;;;;;;;25.63;nan;-24527.34;5074034;28;20654;-59
2022/05/16 08:43:50;;;;;;;8.75;6.65;;;;;;;25.49;nan;-24523.47;5078173;28;20225;-58
2022/05/16 08:46:38;;;;;;;8.15;6.20;;;;;;;25.78;nan;-24531.31;5065223;28;20182;-58
2022/05/16 08:49:17;;;;;;;8.77;5.80;;;;;;;26.05;nan;-24538.59;5076169;28;20186;-59
2022/05/16 08:51:51;;;;;;;8.35;5.78;;;;;;;26.09;nan;-24539.84;5077230;28;20181;-59
2022/05/16 08:54:33;;;;;;;7.63;5.53;;;;;;;25.95;nan;-24536.00;5074469;28;21071;-59
2022/05/16 08:57:01;;;;;;;6.93;5.40;;;;;;;23.69;nan;-24474.56;5077213;28;20665;-58
2022/05/16 08:59:32;;;;;;;7.15;5.68;;;;;;;26.52;nan;-24551.53;5074113;28;20213;-59
2022/05/16 09:02:11;;;;;;;8.35;5.22;;;;;;;26.69;nan;-24556.06;5078238;28;20225;-59
2022/05/16 09:04:57;;;;;;;7.63;5.68;;;;;;;26.28;nan;-24544.94;5072629;28;20178;-59
2022/05/16 09:07:28;;;;;;;8.18;5.72;;;;;;;26.77;nan;-24558.25;5074483;28;20605;-59
2022/05/16 09:10:32;;;;;;;7.60;5.40;;;;;;;27.19;nan;-24569.78;5076409;28;20490;-59
2022/05/16 09:12:57;;;;;;;7.10;5.35;;;;;;;27.19;nan;-24569.63;5029219;28;20273;-59
2022/05/16 09:15:51;;;;;;;7.32;5.43;;;;;;;27.48;nan;-24577.59;5062806;28;20269;-60
2022/05/16 09:18:24;;;;;;;7.53;5.45;;;;;;;27.56;nan;-24579.66;5072616;28;20672;-59
2022/05/16 09:21:06;;;;;;;7.72;5.53;;;;;;;27.76;nan;-24585.13;5072879;28;20182;-59
2022/05/16 09:23:52;;;;;;;7.10;5.25;;;;;;;27.66;nan;-24582.38;5072877;28;20200;-58
2022/05/16 09:27:02;;;;;;;7.68;5.57;;;;;;;27.88;nan;-24588.41;5072663;28;20170;-59
2022/05/16 09:29:46;;;;;;;7.28;5.10;;;;;;;27.76;nan;-24585.13;5071938;28;20185;-59
2022/05/16 09:32:13;;;;;;;6.85;5.03;;;;;;;28.30;nan;-24599.66;5064159;28;20216;-59
2022/05/16 09:34:39;;;;;;;5.75;4.50;;;;;;;28.27;nan;-24598.81;5071950;28;20285;-59
2022/05/16 09:37:05;;;;;;;5.75;4.43;;;;;;;28.43;nan;-24603.19;5072235;28;20166;-60
2022/05/16 09:39:31;;;;;;;6.13;4.50;;;;;;;27.99;nan;-24591.44;5071888;28;20209;-59
2022/05/16 09:42:02;;;;;;;5.13;4.38;;;;;;;28.44;nan;-24603.59;5070705;28;20224;-59
2022/05/16 09:44:41;;;;;;;5.63;4.00;;;;;;;28.52;nan;-24605.66;5072077;28;20225;-59
2022/05/16 09:47:16;;;;;;;4.85;3.92;;;;;;;28.37;nan;-24601.56;5072946;28;20201;-59
2022/05/16 09:49:41;;;;;;;5.80;4.13;;;;;;;27.63;nan;-24581.69;5072173;28;20176;-59
2022/05/16 09:52:15;;;;;;;4.85;3.67;;;;;;;27.46;nan;-24576.91;5071896;28;20170;-59
2022/05/16 09:54:40;;;;;;;4.47;3.78;;;;;;;27.51;nan;-24578.41;5075160;28;20226;-59
2022/05/16 09:57:13;;;;;;;5.65;4.10;;;;;;;27.81;nan;-24586.50;5073836;28;20185;-59
2022/05/16 09:59:48;;;;;;;6.22;4.00;;;;;;;28.39;nan;-24602.25;5077402;28;20619;-59
2022/05/16 10:02:19;;;;;;;6.05;4.45;;;;;;;28.14;nan;-24595.25;5072389;28;20231;-59
2022/05/16 10:04:47;;;;;;;6.78;4.53;;;;;;;28.36;nan;-24601.28;5074501;28;20178;-59
2022/05/16 10:07:13;;;;;;;5.95;4.63;;;;;;;28.57;nan;-24607.03;5071996;28;20193;-59
2022/05/16 10:09:48;;;;;;;6.15;4.03;;;;;;;26.16;nan;-24541.78;5074428;28;20189;-59
2022/05/16 10:12:16;;;;;;;5.88;4.00;;;;;;;28.77;nan;-24612.50;5072465;28;20318;-59
2022/05/16 10:14:43;;;;;;;6.22;4.25;;;;;;;28.98;nan;-24618.25;5074046;28;20725;-59
2022/05/16 10:17:15;;;;;;;9.15;4.20;;;;;;;29.05;nan;-24619.88;5072091;28;20181;-59
2022/05/16 10:19:41;;;;;;;5.93;3.90;;;;;;;28.94;nan;-24617.00;5071520;28;20193;-59
2022/05/16 10:22:13;;;;;;;4.72;3.70;;;;;;;29.20;nan;-24624.13;5071778;28;20162;-58
2022/05/16 10:24:46;;;;;;;4.85;4.05;;;;;;;29.21;nan;-24624.25;5074724;28;20183;-58
2022/05/16 10:27:13;;;;;;;5.60;4.28;;;;;;;29.26;nan;-24625.63;5067722;28;20217;-60
2022/05/16 10:29:45;;;;;;;4.65;3.58;;;;;;;28.98;nan;-24618.25;5069822;28;20539;-58
2022/05/16 10:35:29;;;;;;;4.97;3.97;;;;;;;29.16;nan;-24622.88;5071651;28;20188;-58
2022/05/16 10:37:58;;;;;;;5.15;4.00;;;;;;;28.92;nan;-24616.59;5071265;28;20177;-58
2022/05/16 10:40:33;;;;;;;4.68;3.72;;;;;;;29.52;nan;-24632.72;5073114;28;20208;-58
2022/05/16 10:43:32;;;;;;;4.55;3.92;;;;;;;29.33;nan;-24627.53;5078972;28;20177;-60
2022/05/16 10:46:06;;;;;;;6.28;4.43;;;;;;;28.90;nan;-24616.06;5068711;28;20677;-59
2022/05/16 10:49:24;;;;;;;4.63;3.92;;;;;;;29.21;nan;-24624.38;5071294;28;20241;-59
2022/05/16 10:51:53;;;;;;;5.03;3.55;;;;;;;29.23;nan;-24624.78;5049625;28;20190;-59
2022/05/16 10:54:22;;;;;;;8.65;3.90;;;;;;;29.28;nan;-24626.16;5062252;28;20232;-59
2022/05/16 10:57:10;;;;;;;4.50;3.60;;;;;;;29.44;nan;-24630.53;5070232;28;20530;-59
2022/05/16 11:00:21;;;;;;;4.68;3.97;;;;;;;29.32;nan;-24627.41;5071825;28;20241;-59
2022/05/16 11:02:46;;;;;;;4.80;3.90;;;;;;;29.28;nan;-24626.16;5069643;28;20181;-59
2022/05/16 11:05:31;;;;;;;4.50;3.72;;;;;;;29.33;nan;-24627.53;5071511;28;20169;-59
2022/05/16 11:07:59;;;;;;;7.65;5.07;;;;;;;29.17;nan;-24623.28;5071676;28;20199;-60
2022/05/16 11:10:31;;;;;;;5.95;3.72;;;;;;;28.59;nan;-24607.56;5071284;28;20192;-59
2022/05/16 11:13:00;;;;;;;4.10;3.63;;;;;;;27.99;nan;-24591.44;5071727;28;20256;-59
2022/05/16 11:15:34;;;;;;;4.25;3.50;;;;;;;27.98;nan;-24591.16;5075779;28;20186;-59
2022/05/16 11:18:25;;;;;;;4.97;3.80;;;;;;;27.96;nan;-24590.47;5076431;28;20188;-59
2022/05/16 11:20:59;;;;;;;4.40;3.50;;;;;;;28.06;nan;-24593.22;5079469;28;20192;-59
2022/05/16 11:23:45;;;;;;;4.85;3.75;;;;;;;28.30;nan;-24599.66;5078616;28;20188;-59
2022/05/16 11:26:23;;;;;;;5.13;3.92;;;;;;;27.96;nan;-24590.59;5076831;28;20214;-59
2022/05/16 11:29:17;;;;;;;4.50;3.72;;;;;;;27.76;nan;-24585.13;5078210;28;20235;-59
2022/05/16 11:31:49;;;;;;;4.70;3.42;;;;;;;27.99;nan;-24591.28;5076033;28;20649;-59
2022/05/16 11:34:26;;;;;;;4.35;3.42;;;;;;;27.57;nan;-24580.06;5078931;28;20170;-60
2022/05/16 11:37:24;;;;;;;6.95;3.75;;;;;;;27.71;nan;-24583.63;5084000;28;20189;-60
2022/05/16 11:39:58;;;;;;;4.93;3.35;;;;;;;28.00;nan;-24591.56;5074414;28;20202;-59
2022/05/16 11:42:45;;;;;;;4.72;3.47;;;;;;;28.16;nan;-24595.81;5074772;28;20594;-60
2022/05/16 11:45:44;;;;;;;3.85;3.20;;;;;;;28.17;nan;-24596.09;5079964;28;20201;-60
2022/05/16 11:48:23;;;;;;;4.22;3.45;;;;;;;28.13;nan;-24595.13;5075194;28;20185;-60
2022/05/16 11:51:09;;;;;;;5.53;3.42;;;;;;;28.28;nan;-24599.22;5079576;28;20212;-59
2022/05/16 11:53:50;;;;;;;3.50;3.17;;;;;;;28.40;nan;-24602.50;5063640;28;20229;-59
2022/05/16 12:02:36;;;;;;;5.35;3.70;;;;;;;28.27;nan;-24598.97;5075265;28;20259;-59
2022/05/16 12:05:02;;;;;;;3.97;3.35;;;;;;;28.54;nan;-24606.34;5073971;28;20181;-60
2022/05/16 12:07:38;;;;;;;8.90;3.80;;;;;;;28.84;nan;-24614.28;5073398;28;20193;-59
2022/05/16 12:10:09;;;;;;;6.53;3.47;;;;;;;29.11;nan;-24621.66;5077534;28;20561;-59
2022/05/16 12:12:40;;;;;;;5.80;3.60;;;;;;;29.31;nan;-24627.00;5075615;28;20276;-60
2022/05/16 12:15:23;;;;;;;4.97;3.90;;;;;;;29.43;nan;-24630.25;5071746;28;20649;-62
2022/05/16 12:17:52;;;;;;;3.67;3.20;;;;;;;28.65;nan;-24609.06;5072491;28;20220;-59
2022/05/16 12:20:43;;;;;;;4.63;3.08;;;;;;;29.29;nan;-24626.56;5075058;28;20181;-60